sensor_id;sensor_type;location;lat;lon;timestamp;temperature;humidity
592;DHT22;283;53.608;10.046;2022-10-16T00:01:34;15.00;99.90
592;DHT22;283;53.608;10.046;2022-10-16T00:04:03;15.00;99.90
592;DHT22;283;53.608;10.046;2022-10-16T00:06:32;15.00;99.90
592;DHT22;283;53.608;10.046;2022-10-16T00:09:00;15.10;99.90
592;DHT22;283;53.608;10.046;2022-10-16T00:11:30;15.10;99.90
592;DHT22;283;53.608;10.046;2022-10-16T00:14:01;15.10;99.90
592;DHT22;283;53.608;10.046;2022-10-16T00:16:30;15.10;99.90
592;DHT22;283;53.608;10.046;2022-10-16T00:18:58;15.00;99.90
592;DHT22;283;53.608;10.046;2022-10-16T00:21:27;15.00;99.90
592;DHT22;283;53.608;10.046;2022-10-16T00:23:59;15.00;99.90
592;DHT22;283;53.608;10.046;2022-10-16T00:26:28;15.10;99.90
592;DHT22;283;53.608;10.046;2022-10-16T00:28:56;15.00;99.90
592;DHT22;283;53.608;10.046;2022-10-16T00:31:24;15.00;99.90
592;DHT22;283;53.608;10.046;2022-10-16T00:33:52;15.00;99.90
592;DHT22;283;53.608;10.046;2022-10-16T00:36:21;15.00;99.90
592;DHT22;283;53.608;10.046;2022-10-16T00:38:50;15.00;99.90
592;DHT22;283;53.608;10.046;2022-10-16T00:41:22;15.00;99.90
592;DHT22;283;53.608;10.046;2022-10-16T00:43:51;15.00;99.90
592;DHT22;283;53.608;10.046;2022-10-16T00:46:22;15.00;99.90
592;DHT22;283;53.608;10.046;2022-10-16T00:48:53;15.10;99.90
592;DHT22;283;53.608;10.046;2022-10-16T00:51:25;15.10;99.90
592;DHT22;283;53.608;10.046;2022-10-16T00:53:55;15.20;99.90
592;DHT22;283;53.608;10.046;2022-10-16T00:56:25;15.20;99.90
592;DHT22;283;53.608;10.046;2022-10-16T00:58:52;15.20;99.90
592;DHT22;283;53.608;10.046;2022-10-16T01:01:20;15.20;99.90
592;DHT22;283;53.608;10.046;2022-10-16T01:03:48;15.30;99.90
592;DHT22;283;53.608;10.046;2022-10-16T01:06:22;15.20;99.90
592;DHT22;283;53.608;10.046;2022-10-16T01:09:11;15.20;99.90
592;DHT22;283;53.608;10.046;2022-10-16T01:11:49;15.20;99.90
592;DHT22;283;53.608;10.046;2022-10-16T01:14:23;15.10;99.90
592;DHT22;283;53.608;10.046;2022-10-16T01:16:57;15.10;99.90
592;DHT22;283;53.608;10.046;2022-10-16T01:19:55;15.10;99.90
592;DHT22;283;53.608;10.046;2022-10-16T01:22:26;15.20;99.90
592;DHT22;283;53.608;10.046;2022-10-16T01:25:00;15.20;99.90
592;DHT22;283;53.608;10.046;2022-10-16T01:27:36;15.20;99.90
592;DHT22;283;53.608;10.046;2022-10-16T01:30:10;15.20;99.90
592;DHT22;283;53.608;10.046;2022-10-16T01:32:42;15.20;99.90
592;DHT22;283;53.608;10.046;2022-10-16T01:35:14;15.10;99.90
592;DHT22;283;53.608;10.046;2022-10-16T01:37:48;15.00;99.90
592;DHT22;283;53.608;10.046;2022-10-16T01:40:18;14.90;99.90
592;DHT22;283;53.608;10.046;2022-10-16T01:42:52;14.90;99.90
592;DHT22;283;53.608;10.046;2022-10-16T01:45:21;14.80;99.90
592;DHT22;283;53.608;10.046;2022-10-16T01:47:49;14.70;99.90
592;DHT22;283;53.608;10.046;2022-10-16T01:50:20;14.70;99.90
592;DHT22;283;53.608;10.046;2022-10-16T01:52:51;14.70;99.90
592;DHT22;283;53.608;10.046;2022-10-16T01:55:23;14.60;99.90
592;DHT22;283;53.608;10.046;2022-10-16T01:57:53;14.60;99.90
592;DHT22;283;53.608;10.046;2022-10-16T02:00:22;14.60;99.90
592;DHT22;283;53.608;10.046;2022-10-16T02:02:53;14.60;99.90
592;DHT22;283;53.608;10.046;2022-10-16T02:05:25;14.60;99.90
592;DHT22;283;53.608;10.046;2022-10-16T02:07:54;14.60;99.90
592;DHT22;283;53.608;10.046;2022-10-16T02:10:25;14.60;99.90
592;DHT22;283;53.608;10.046;2022-10-16T02:13:02;14.60;99.90
592;DHT22;283;53.608;10.046;2022-10-16T02:18:37;14.60;99.90
592;DHT22;283;53.608;10.046;2022-10-16T02:21:13;14.50;99.90
592;DHT22;283;53.608;10.046;2022-10-16T02:23:48;14.50;99.90
592;DHT22;283;53.608;10.046;2022-10-16T02:26:25;14.50;99.90
592;DHT22;283;53.608;10.046;2022-10-16T02:28:59;14.50;99.90
592;DHT22;283;53.608;10.046;2022-10-16T02:31:32;14.50;99.90
592;DHT22;283;53.608;10.046;2022-10-16T02:34:03;14.40;99.90
592;DHT22;283;53.608;10.046;2022-10-16T02:36:33;14.40;99.90
592;DHT22;283;53.608;10.046;2022-10-16T02:39:03;14.40;99.90
592;DHT22;283;53.608;10.046;2022-10-16T02:41:31;14.30;99.90
592;DHT22;283;53.608;10.046;2022-10-16T02:44:01;14.30;99.90
592;DHT22;283;53.608;10.046;2022-10-16T02:46:29;14.30;99.90
592;DHT22;283;53.608;10.046;2022-10-16T02:48:56;14.20;99.90
592;DHT22;283;53.608;10.046;2022-10-16T02:51:24;14.20;99.90
592;DHT22;283;53.608;10.046;2022-10-16T02:53:52;14.20;99.90
592;DHT22;283;53.608;10.046;2022-10-16T02:56:19;14.20;99.90
592;DHT22;283;53.608;10.046;2022-10-16T02:58:47;14.20;99.90
592;DHT22;283;53.608;10.046;2022-10-16T03:01:16;14.20;99.90
592;DHT22;283;53.608;10.046;2022-10-16T03:03:44;14.10;99.90
592;DHT22;283;53.608;10.046;2022-10-16T03:06:12;14.00;99.90
592;DHT22;283;53.608;10.046;2022-10-16T03:08:39;14.00;99.90
592;DHT22;283;53.608;10.046;2022-10-16T03:11:07;14.00;99.90
592;DHT22;283;53.608;10.046;2022-10-16T03:13:35;13.90;99.90
592;DHT22;283;53.608;10.046;2022-10-16T03:16:03;13.80;99.90
592;DHT22;283;53.608;10.046;2022-10-16T03:18:32;13.80;99.90
592;DHT22;283;53.608;10.046;2022-10-16T03:21:00;13.80;99.90
592;DHT22;283;53.608;10.046;2022-10-16T03:23:28;13.80;99.90
592;DHT22;283;53.608;10.046;2022-10-16T03:25:56;13.80;99.90
592;DHT22;283;53.608;10.046;2022-10-16T03:28:24;13.70;99.90
592;DHT22;283;53.608;10.046;2022-10-16T03:30:51;13.70;99.90
592;DHT22;283;53.608;10.046;2022-10-16T03:33:19;13.70;99.90
592;DHT22;283;53.608;10.046;2022-10-16T03:35:52;13.60;99.90
592;DHT22;283;53.608;10.046;2022-10-16T03:38:20;13.60;99.90
592;DHT22;283;53.608;10.046;2022-10-16T03:40:48;13.50;99.90
592;DHT22;283;53.608;10.046;2022-10-16T03:43:16;13.40;99.90
592;DHT22;283;53.608;10.046;2022-10-16T03:45:44;13.40;99.90
592;DHT22;283;53.608;10.046;2022-10-16T03:48:11;13.40;99.90
592;DHT22;283;53.608;10.046;2022-10-16T03:50:39;13.40;99.90
592;DHT22;283;53.608;10.046;2022-10-16T03:53:08;13.40;99.90
592;DHT22;283;53.608;10.046;2022-10-16T03:55:36;13.50;99.90
592;DHT22;283;53.608;10.046;2022-10-16T03:58:04;13.50;99.90
592;DHT22;283;53.608;10.046;2022-10-16T04:00:32;13.50;99.90
592;DHT22;283;53.608;10.046;2022-10-16T04:03:00;13.50;99.90
592;DHT22;283;53.608;10.046;2022-10-16T04:05:28;13.50;99.90
592;DHT22;283;53.608;10.046;2022-10-16T04:07:56;13.50;99.90
592;DHT22;283;53.608;10.046;2022-10-16T04:10:25;13.50;99.90
592;DHT22;283;53.608;10.046;2022-10-16T04:12:53;13.50;99.90
592;DHT22;283;53.608;10.046;2022-10-16T04:15:22;13.50;99.90
592;DHT22;283;53.608;10.046;2022-10-16T04:17:51;13.40;99.90
592;DHT22;283;53.608;10.046;2022-10-16T04:20:19;13.40;99.90
592;DHT22;283;53.608;10.046;2022-10-16T04:22:46;13.40;99.90
592;DHT22;283;53.608;10.046;2022-10-16T04:25:14;13.40;99.90
592;DHT22;283;53.608;10.046;2022-10-16T04:27:43;13.50;99.90
592;DHT22;283;53.608;10.046;2022-10-16T04:30:12;13.40;99.90
592;DHT22;283;53.608;10.046;2022-10-16T04:32:40;13.50;99.90
592;DHT22;283;53.608;10.046;2022-10-16T04:35:08;13.50;99.90
592;DHT22;283;53.608;10.046;2022-10-16T04:37:36;13.50;99.90
592;DHT22;283;53.608;10.046;2022-10-16T04:40:05;13.50;99.90
592;DHT22;283;53.608;10.046;2022-10-16T04:42:33;13.50;99.90
592;DHT22;283;53.608;10.046;2022-10-16T04:45:02;13.50;99.90
592;DHT22;283;53.608;10.046;2022-10-16T04:47:30;13.50;99.90
592;DHT22;283;53.608;10.046;2022-10-16T04:49:58;13.50;99.90
592;DHT22;283;53.608;10.046;2022-10-16T04:52:27;13.50;99.90
592;DHT22;283;53.608;10.046;2022-10-16T04:54:55;13.50;99.90
592;DHT22;283;53.608;10.046;2022-10-16T04:57:27;13.50;99.90
592;DHT22;283;53.608;10.046;2022-10-16T04:59:55;13.50;99.90
592;DHT22;283;53.608;10.046;2022-10-16T05:02:24;13.60;99.90
592;DHT22;283;53.608;10.046;2022-10-16T05:04:52;13.50;99.90
592;DHT22;283;53.608;10.046;2022-10-16T05:07:20;13.50;99.90
592;DHT22;283;53.608;10.046;2022-10-16T05:09:47;13.60;99.90
592;DHT22;283;53.608;10.046;2022-10-16T05:12:15;13.60;99.90
592;DHT22;283;53.608;10.046;2022-10-16T05:14:43;13.60;99.90
592;DHT22;283;53.608;10.046;2022-10-16T05:17:10;13.50;99.90
592;DHT22;283;53.608;10.046;2022-10-16T05:19:39;13.50;99.90
592;DHT22;283;53.608;10.046;2022-10-16T05:22:07;13.50;99.90
592;DHT22;283;53.608;10.046;2022-10-16T05:24:35;13.50;99.90
592;DHT22;283;53.608;10.046;2022-10-16T05:27:03;13.50;99.90
592;DHT22;283;53.608;10.046;2022-10-16T05:29:30;13.50;99.90
592;DHT22;283;53.608;10.046;2022-10-16T05:31:58;13.40;99.90
592;DHT22;283;53.608;10.046;2022-10-16T05:34:26;13.40;99.90
592;DHT22;283;53.608;10.046;2022-10-16T05:36:55;13.30;99.90
592;DHT22;283;53.608;10.046;2022-10-16T05:39:22;13.30;99.90
592;DHT22;283;53.608;10.046;2022-10-16T05:41:50;13.30;99.90
592;DHT22;283;53.608;10.046;2022-10-16T05:44:18;13.30;99.90
592;DHT22;283;53.608;10.046;2022-10-16T05:46:47;13.40;99.90
592;DHT22;283;53.608;10.046;2022-10-16T05:49:14;13.40;99.90
592;DHT22;283;53.608;10.046;2022-10-16T05:51:42;13.40;99.90
592;DHT22;283;53.608;10.046;2022-10-16T05:54:11;13.50;99.90
592;DHT22;283;53.608;10.046;2022-10-16T05:56:39;13.50;99.90
592;DHT22;283;53.608;10.046;2022-10-16T05:59:07;13.60;99.90
592;DHT22;283;53.608;10.046;2022-10-16T06:01:35;13.70;99.90
592;DHT22;283;53.608;10.046;2022-10-16T06:04:02;13.70;99.90
592;DHT22;283;53.608;10.046;2022-10-16T06:06:30;13.70;99.90
592;DHT22;283;53.608;10.046;2022-10-16T06:08:58;13.80;99.90
592;DHT22;283;53.608;10.046;2022-10-16T06:11:29;13.90;99.90
592;DHT22;283;53.608;10.046;2022-10-16T06:13:59;13.90;99.90
592;DHT22;283;53.608;10.046;2022-10-16T06:16:28;13.90;99.90
592;DHT22;283;53.608;10.046;2022-10-16T06:18:56;14.00;99.90
592;DHT22;283;53.608;10.046;2022-10-16T06:21:26;14.00;99.90
592;DHT22;283;53.608;10.046;2022-10-16T06:23:55;14.00;99.90
592;DHT22;283;53.608;10.046;2022-10-16T06:26:27;14.00;99.90
592;DHT22;283;53.608;10.046;2022-10-16T06:28:55;13.90;99.90
592;DHT22;283;53.608;10.046;2022-10-16T06:31:24;13.90;99.90
592;DHT22;283;53.608;10.046;2022-10-16T06:33:54;13.90;99.90
592;DHT22;283;53.608;10.046;2022-10-16T06:36:23;13.80;99.90
592;DHT22;283;53.608;10.046;2022-10-16T06:38:51;13.80;99.90
592;DHT22;283;53.608;10.046;2022-10-16T06:41:20;13.70;99.90
592;DHT22;283;53.608;10.046;2022-10-16T06:43:50;13.60;99.90
592;DHT22;283;53.608;10.046;2022-10-16T06:46:20;13.60;99.90
592;DHT22;283;53.608;10.046;2022-10-16T06:48:48;13.50;99.90
592;DHT22;283;53.608;10.046;2022-10-16T06:51:17;13.50;99.90
592;DHT22;283;53.608;10.046;2022-10-16T06:53:46;13.40;99.90
592;DHT22;283;53.608;10.046;2022-10-16T06:56:28;13.40;99.90
592;DHT22;283;53.608;10.046;2022-10-16T06:58:59;13.40;99.90
592;DHT22;283;53.608;10.046;2022-10-16T07:01:27;13.40;99.90
592;DHT22;283;53.608;10.046;2022-10-16T07:03:55;13.50;99.90
592;DHT22;283;53.608;10.046;2022-10-16T07:06:25;13.60;99.90
592;DHT22;283;53.608;10.046;2022-10-16T07:08:53;13.80;99.90
592;DHT22;283;53.608;10.046;2022-10-16T07:11:22;13.90;99.90
592;DHT22;283;53.608;10.046;2022-10-16T07:13:51;14.00;99.90
592;DHT22;283;53.608;10.046;2022-10-16T07:16:25;14.20;99.90
592;DHT22;283;53.608;10.046;2022-10-16T07:18:54;14.30;99.90
592;DHT22;283;53.608;10.046;2022-10-16T07:21:26;14.50;99.90
592;DHT22;283;53.608;10.046;2022-10-16T07:23:56;14.70;99.90
592;DHT22;283;53.608;10.046;2022-10-16T07:26:25;14.80;99.90
592;DHT22;283;53.608;10.046;2022-10-16T07:28:53;14.90;99.90
592;DHT22;283;53.608;10.046;2022-10-16T07:31:23;14.90;99.90
592;DHT22;283;53.608;10.046;2022-10-16T07:33:50;14.90;99.90
592;DHT22;283;53.608;10.046;2022-10-16T07:36:19;15.00;99.90
592;DHT22;283;53.608;10.046;2022-10-16T07:38:47;15.00;99.90
592;DHT22;283;53.608;10.046;2022-10-16T07:41:19;14.90;99.90
592;DHT22;283;53.608;10.046;2022-10-16T07:43:49;15.00;99.90
592;DHT22;283;53.608;10.046;2022-10-16T07:46:18;15.00;99.90
592;DHT22;283;53.608;10.046;2022-10-16T07:48:48;15.10;99.90
592;DHT22;283;53.608;10.046;2022-10-16T07:51:17;15.10;99.90
592;DHT22;283;53.608;10.046;2022-10-16T07:53:45;15.20;99.90
592;DHT22;283;53.608;10.046;2022-10-16T07:56:14;15.30;99.90
592;DHT22;283;53.608;10.046;2022-10-16T07:58:42;15.40;99.90
592;DHT22;283;53.608;10.046;2022-10-16T08:01:11;15.50;99.90
592;DHT22;283;53.608;10.046;2022-10-16T08:03:42;15.60;99.90
592;DHT22;283;53.608;10.046;2022-10-16T08:06:11;15.70;99.90
592;DHT22;283;53.608;10.046;2022-10-16T08:08:38;15.80;99.90
592;DHT22;283;53.608;10.046;2022-10-16T08:11:06;15.90;99.90
592;DHT22;283;53.608;10.046;2022-10-16T08:13:34;16.00;99.90
592;DHT22;283;53.608;10.046;2022-10-16T08:16:03;15.90;99.90
592;DHT22;283;53.608;10.046;2022-10-16T08:18:34;15.90;99.90
592;DHT22;283;53.608;10.046;2022-10-16T08:21:03;15.80;99.90
592;DHT22;283;53.608;10.046;2022-10-16T08:23:33;15.80;99.90
592;DHT22;283;53.608;10.046;2022-10-16T08:26:05;15.90;99.90
592;DHT22;283;53.608;10.046;2022-10-16T08:28:34;15.90;99.90
592;DHT22;283;53.608;10.046;2022-10-16T08:31:07;15.80;99.90
592;DHT22;283;53.608;10.046;2022-10-16T08:33:35;15.80;99.90
592;DHT22;283;53.608;10.046;2022-10-16T08:36:04;15.90;99.90
592;DHT22;283;53.608;10.046;2022-10-16T08:38:34;15.80;99.90
592;DHT22;283;53.608;10.046;2022-10-16T08:41:17;15.90;99.90
592;DHT22;283;53.608;10.046;2022-10-16T08:44:03;15.80;99.90
592;DHT22;283;53.608;10.046;2022-10-16T08:46:42;15.90;99.90
592;DHT22;283;53.608;10.046;2022-10-16T08:49:16;16.00;99.90
592;DHT22;283;53.608;10.046;2022-10-16T08:51:45;16.10;99.90
592;DHT22;283;53.608;10.046;2022-10-16T08:54:25;16.10;99.90
592;DHT22;283;53.608;10.046;2022-10-16T08:56:55;16.20;99.90
592;DHT22;283;53.608;10.046;2022-10-16T08:59:23;16.30;99.90
592;DHT22;283;53.608;10.046;2022-10-16T09:01:52;16.30;99.90
592;DHT22;283;53.608;10.046;2022-10-16T09:04:47;16.20;99.90
592;DHT22;283;53.608;10.046;2022-10-16T09:07:26;16.30;99.90
592;DHT22;283;53.608;10.046;2022-10-16T09:10:17;16.40;99.90
592;DHT22;283;53.608;10.046;2022-10-16T09:12:52;16.40;99.90
592;DHT22;283;53.608;10.046;2022-10-16T09:15:30;16.50;99.90
592;DHT22;283;53.608;10.046;2022-10-16T09:18:04;16.60;99.90
592;DHT22;283;53.608;10.046;2022-10-16T09:20:50;16.70;99.90
592;DHT22;283;53.608;10.046;2022-10-16T09:23:22;16.80;99.90
592;DHT22;283;53.608;10.046;2022-10-16T09:25:54;16.80;99.90
592;DHT22;283;53.608;10.046;2022-10-16T09:28:22;16.90;99.90
592;DHT22;283;53.608;10.046;2022-10-16T09:30:51;17.00;99.90
592;DHT22;283;53.608;10.046;2022-10-16T09:33:21;17.00;99.90
592;DHT22;283;53.608;10.046;2022-10-16T09:35:52;17.00;99.90
592;DHT22;283;53.608;10.046;2022-10-16T09:38:22;17.10;99.90
592;DHT22;283;53.608;10.046;2022-10-16T09:40:50;17.20;99.90
592;DHT22;283;53.608;10.046;2022-10-16T09:43:33;17.10;99.90
592;DHT22;283;53.608;10.046;2022-10-16T09:46:04;17.00;99.90
592;DHT22;283;53.608;10.046;2022-10-16T09:48:36;17.00;99.90
592;DHT22;283;53.608;10.046;2022-10-16T09:51:13;16.90;99.90
592;DHT22;283;53.608;10.046;2022-10-16T09:53:45;16.90;99.90
592;DHT22;283;53.608;10.046;2022-10-16T09:56:21;16.80;99.90
592;DHT22;283;53.608;10.046;2022-10-16T09:58:51;16.90;99.90
592;DHT22;283;53.608;10.046;2022-10-16T10:01:21;16.80;99.90
592;DHT22;283;53.608;10.046;2022-10-16T10:03:50;16.90;99.90
592;DHT22;283;53.608;10.046;2022-10-16T10:06:23;16.90;99.90
592;DHT22;283;53.608;10.046;2022-10-16T10:09:04;17.00;99.90
592;DHT22;283;53.608;10.046;2022-10-16T10:11:53;17.00;99.90
592;DHT22;283;53.608;10.046;2022-10-16T10:14:25;17.10;99.90
592;DHT22;283;53.608;10.046;2022-10-16T10:17:08;17.10;99.90
592;DHT22;283;53.608;10.046;2022-10-16T10:19:39;17.10;99.90
592;DHT22;283;53.608;10.046;2022-10-16T10:22:17;17.20;99.90
592;DHT22;283;53.608;10.046;2022-10-16T10:24:54;17.30;99.90
592;DHT22;283;53.608;10.046;2022-10-16T10:27:29;17.30;99.90
592;DHT22;283;53.608;10.046;2022-10-16T10:30:04;17.20;99.90
592;DHT22;283;53.608;10.046;2022-10-16T10:32:39;17.10;99.90
592;DHT22;283;53.608;10.046;2022-10-16T10:35:15;17.10;99.90
592;DHT22;283;53.608;10.046;2022-10-16T10:38:00;17.10;99.90
592;DHT22;283;53.608;10.046;2022-10-16T10:40:39;17.20;99.90
592;DHT22;283;53.608;10.046;2022-10-16T10:43:19;17.20;99.90
592;DHT22;283;53.608;10.046;2022-10-16T10:45:53;17.20;99.90
592;DHT22;283;53.608;10.046;2022-10-16T10:48:38;17.40;99.90
592;DHT22;283;53.608;10.046;2022-10-16T10:51:15;17.60;99.90
592;DHT22;283;53.608;10.046;2022-10-16T10:53:52;17.80;99.90
592;DHT22;283;53.608;10.046;2022-10-16T10:56:39;18.00;99.90
592;DHT22;283;53.608;10.046;2022-10-16T10:59:36;18.10;99.90
592;DHT22;283;53.608;10.046;2022-10-16T11:02:15;18.10;99.90
592;DHT22;283;53.608;10.046;2022-10-16T11:05:13;18.00;99.90
592;DHT22;283;53.608;10.046;2022-10-16T11:07:49;17.90;99.90
592;DHT22;283;53.608;10.046;2022-10-16T11:10:20;17.90;99.90
592;DHT22;283;53.608;10.046;2022-10-16T11:12:53;17.80;99.90
592;DHT22;283;53.608;10.046;2022-10-16T11:15:27;17.80;99.90
592;DHT22;283;53.608;10.046;2022-10-16T11:18:00;17.80;99.90
592;DHT22;283;53.608;10.046;2022-10-16T11:20:33;17.90;99.90
592;DHT22;283;53.608;10.046;2022-10-16T11:23:07;17.90;99.90
592;DHT22;283;53.608;10.046;2022-10-16T11:25:36;17.90;99.90
592;DHT22;283;53.608;10.046;2022-10-16T11:28:10;17.90;99.90
592;DHT22;283;53.608;10.046;2022-10-16T11:30:43;17.90;99.90
592;DHT22;283;53.608;10.046;2022-10-16T11:33:25;17.90;99.90
592;DHT22;283;53.608;10.046;2022-10-16T11:36:03;17.90;99.90
592;DHT22;283;53.608;10.046;2022-10-16T11:38:34;18.10;99.90
592;DHT22;283;53.608;10.046;2022-10-16T11:41:12;18.30;99.90
592;DHT22;283;53.608;10.046;2022-10-16T11:43:46;18.50;99.90
592;DHT22;283;53.608;10.046;2022-10-16T11:46:19;18.70;99.90
592;DHT22;283;53.608;10.046;2022-10-16T11:48:52;18.80;99.90
592;DHT22;283;53.608;10.046;2022-10-16T11:51:26;18.80;99.90
592;DHT22;283;53.608;10.046;2022-10-16T11:54:02;18.70;99.90
592;DHT22;283;53.608;10.046;2022-10-16T11:56:32;18.60;99.90
592;DHT22;283;53.608;10.046;2022-10-16T11:59:06;18.50;99.90
592;DHT22;283;53.608;10.046;2022-10-16T12:01:40;18.40;99.90
592;DHT22;283;53.608;10.046;2022-10-16T12:04:19;18.20;99.90
592;DHT22;283;53.608;10.046;2022-10-16T12:06:51;18.00;99.90
592;DHT22;283;53.608;10.046;2022-10-16T12:09:24;17.80;99.90
592;DHT22;283;53.608;10.046;2022-10-16T12:11:52;17.70;99.90
592;DHT22;283;53.608;10.046;2022-10-16T12:14:36;17.70;99.90
592;DHT22;283;53.608;10.046;2022-10-16T12:17:27;17.70;99.90
592;DHT22;283;53.608;10.046;2022-10-16T12:20:20;17.70;99.90
592;DHT22;283;53.608;10.046;2022-10-16T12:22:50;17.70;99.90
592;DHT22;283;53.608;10.046;2022-10-16T12:25:22;17.70;99.90
592;DHT22;283;53.608;10.046;2022-10-16T12:28:01;17.70;99.90
592;DHT22;283;53.608;10.046;2022-10-16T12:30:31;17.80;99.90
592;DHT22;283;53.608;10.046;2022-10-16T12:33:03;17.90;99.90
592;DHT22;283;53.608;10.046;2022-10-16T12:35:34;18.00;99.90
592;DHT22;283;53.608;10.046;2022-10-16T12:38:08;18.10;99.90
592;DHT22;283;53.608;10.046;2022-10-16T12:40:43;18.20;99.90
592;DHT22;283;53.608;10.046;2022-10-16T12:46:01;18.30;99.90
592;DHT22;283;53.608;10.046;2022-10-16T12:48:30;18.40;99.90
592;DHT22;283;53.608;10.046;2022-10-16T12:51:25;18.30;99.90
592;DHT22;283;53.608;10.046;2022-10-16T12:54:00;18.20;99.90
592;DHT22;283;53.608;10.046;2022-10-16T12:56:37;18.10;99.90
592;DHT22;283;53.608;10.046;2022-10-16T12:59:16;18.20;99.90
592;DHT22;283;53.608;10.046;2022-10-16T13:01:59;18.40;99.90
592;DHT22;283;53.608;10.046;2022-10-16T13:04:43;18.50;99.90
592;DHT22;283;53.608;10.046;2022-10-16T13:07:30;18.40;99.90
592;DHT22;283;53.608;10.046;2022-10-16T13:10:09;18.40;99.90
592;DHT22;283;53.608;10.046;2022-10-16T13:13:09;18.50;99.90
592;DHT22;283;53.608;10.046;2022-10-16T13:15:52;18.40;99.90
592;DHT22;283;53.608;10.046;2022-10-16T13:18:25;18.40;99.90
592;DHT22;283;53.608;10.046;2022-10-16T13:21:06;18.30;99.90
592;DHT22;283;53.608;10.046;2022-10-16T13:23:45;18.20;99.90
592;DHT22;283;53.608;10.046;2022-10-16T13:26:23;18.20;99.90
592;DHT22;283;53.608;10.046;2022-10-16T13:28:59;18.20;99.90
592;DHT22;283;53.608;10.046;2022-10-16T13:31:28;18.30;99.90
592;DHT22;283;53.608;10.046;2022-10-16T13:34:01;18.30;99.90
592;DHT22;283;53.608;10.046;2022-10-16T13:36:42;18.30;99.90
592;DHT22;283;53.608;10.046;2022-10-16T13:39:14;18.30;99.90
592;DHT22;283;53.608;10.046;2022-10-16T13:41:43;18.20;99.90
592;DHT22;283;53.608;10.046;2022-10-16T13:44:14;18.20;99.90
592;DHT22;283;53.608;10.046;2022-10-16T13:46:43;18.10;99.90
592;DHT22;283;53.608;10.046;2022-10-16T13:49:13;18.10;99.90
592;DHT22;283;53.608;10.046;2022-10-16T13:51:42;18.10;99.90
592;DHT22;283;53.608;10.046;2022-10-16T13:54:22;18.10;99.90
592;DHT22;283;53.608;10.046;2022-10-16T13:56:50;18.00;99.90
592;DHT22;283;53.608;10.046;2022-10-16T13:59:36;17.90;99.90
592;DHT22;283;53.608;10.046;2022-10-16T14:02:15;17.90;99.90
592;DHT22;283;53.608;10.046;2022-10-16T14:04:45;17.70;99.90
592;DHT22;283;53.608;10.046;2022-10-16T14:07:16;17.70;99.90
592;DHT22;283;53.608;10.046;2022-10-16T14:09:50;17.60;99.90
592;DHT22;283;53.608;10.046;2022-10-16T14:12:18;17.60;99.90
592;DHT22;283;53.608;10.046;2022-10-16T14:14:52;17.60;99.90
592;DHT22;283;53.608;10.046;2022-10-16T14:17:23;17.50;99.90
592;DHT22;283;53.608;10.046;2022-10-16T14:19:54;17.60;99.90
592;DHT22;283;53.608;10.046;2022-10-16T14:22:32;17.60;99.90
592;DHT22;283;53.608;10.046;2022-10-16T14:25:15;17.60;99.90
592;DHT22;283;53.608;10.046;2022-10-16T14:27:57;17.70;99.90
592;DHT22;283;53.608;10.046;2022-10-16T14:30:26;17.70;99.90
592;DHT22;283;53.608;10.046;2022-10-16T14:32:56;17.70;99.90
592;DHT22;283;53.608;10.046;2022-10-16T14:35:30;17.70;99.90
592;DHT22;283;53.608;10.046;2022-10-16T14:38:00;17.70;99.90
592;DHT22;283;53.608;10.046;2022-10-16T14:40:31;17.70;99.90
592;DHT22;283;53.608;10.046;2022-10-16T14:42:59;17.80;99.90
592;DHT22;283;53.608;10.046;2022-10-16T14:45:29;17.80;99.90
592;DHT22;283;53.608;10.046;2022-10-16T14:47:59;17.80;99.90
592;DHT22;283;53.608;10.046;2022-10-16T14:50:28;17.90;99.90
592;DHT22;283;53.608;10.046;2022-10-16T14:52:56;17.90;99.90
592;DHT22;283;53.608;10.046;2022-10-16T14:55:24;17.80;99.90
592;DHT22;283;53.608;10.046;2022-10-16T14:57:54;17.70;99.90
592;DHT22;283;53.608;10.046;2022-10-16T15:00:26;17.60;99.90
592;DHT22;283;53.608;10.046;2022-10-16T15:02:54;17.60;99.90
592;DHT22;283;53.608;10.046;2022-10-16T15:05:24;17.50;99.90
592;DHT22;283;53.608;10.046;2022-10-16T15:07:53;17.40;99.90
592;DHT22;283;53.608;10.046;2022-10-16T15:10:23;17.30;99.90
592;DHT22;283;53.608;10.046;2022-10-16T15:12:51;17.40;99.90
592;DHT22;283;53.608;10.046;2022-10-16T15:15:32;17.40;99.90
592;DHT22;283;53.608;10.046;2022-10-16T15:18:01;17.40;99.90
592;DHT22;283;53.608;10.046;2022-10-16T15:20:30;17.30;99.90
592;DHT22;283;53.608;10.046;2022-10-16T15:23:00;17.20;99.90
592;DHT22;283;53.608;10.046;2022-10-16T15:25:35;17.20;99.90
592;DHT22;283;53.608;10.046;2022-10-16T15:28:04;17.10;99.90
592;DHT22;283;53.608;10.046;2022-10-16T15:30:34;17.10;99.90
592;DHT22;283;53.608;10.046;2022-10-16T15:33:03;17.00;99.90
592;DHT22;283;53.608;10.046;2022-10-16T15:35:31;17.00;99.90
592;DHT22;283;53.608;10.046;2022-10-16T15:37:59;16.80;99.90
592;DHT22;283;53.608;10.046;2022-10-16T15:40:27;16.80;99.90
592;DHT22;283;53.608;10.046;2022-10-16T15:42:55;16.80;99.90
592;DHT22;283;53.608;10.046;2022-10-16T15:45:23;16.70;99.90
592;DHT22;283;53.608;10.046;2022-10-16T15:47:52;16.60;99.90
592;DHT22;283;53.608;10.046;2022-10-16T15:50:19;16.60;99.90
592;DHT22;283;53.608;10.046;2022-10-16T15:52:47;16.50;99.90
592;DHT22;283;53.608;10.046;2022-10-16T15:55:15;16.50;99.90
592;DHT22;283;53.608;10.046;2022-10-16T15:57:44;16.40;99.90
592;DHT22;283;53.608;10.046;2022-10-16T16:00:14;16.40;99.90
592;DHT22;283;53.608;10.046;2022-10-16T16:02:43;16.30;99.90
592;DHT22;283;53.608;10.046;2022-10-16T16:05:12;16.30;99.90
592;DHT22;283;53.608;10.046;2022-10-16T16:07:40;16.20;99.90
592;DHT22;283;53.608;10.046;2022-10-16T16:10:10;16.10;99.90
592;DHT22;283;53.608;10.046;2022-10-16T16:12:39;16.10;99.90
592;DHT22;283;53.608;10.046;2022-10-16T16:15:08;16.00;99.90
592;DHT22;283;53.608;10.046;2022-10-16T16:17:37;15.90;99.90
592;DHT22;283;53.608;10.046;2022-10-16T16:20:05;15.90;99.90
592;DHT22;283;53.608;10.046;2022-10-16T16:22:35;15.70;99.90
592;DHT22;283;53.608;10.046;2022-10-16T16:25:03;15.70;99.90
592;DHT22;283;53.608;10.046;2022-10-16T16:27:31;15.60;99.90
592;DHT22;283;53.608;10.046;2022-10-16T16:30:00;15.60;99.90
592;DHT22;283;53.608;10.046;2022-10-16T16:32:30;15.60;99.90
592;DHT22;283;53.608;10.046;2022-10-16T16:34:58;15.50;99.90
592;DHT22;283;53.608;10.046;2022-10-16T16:37:25;15.40;99.90
592;DHT22;283;53.608;10.046;2022-10-16T16:39:55;15.40;99.90
592;DHT22;283;53.608;10.046;2022-10-16T16:42:25;15.30;99.90
592;DHT22;283;53.608;10.046;2022-10-16T16:44:53;15.30;99.90
592;DHT22;283;53.608;10.046;2022-10-16T16:47:21;15.20;99.90
592;DHT22;283;53.608;10.046;2022-10-16T16:49:48;15.10;99.90
592;DHT22;283;53.608;10.046;2022-10-16T16:52:17;15.00;99.90